sensor_id;sensor_type;location;lat;lon;timestamp;temperature;humidity
7004;DHT22;3542;48.812;9.146;2023-04-03T00:00:11;4.30;99.90
7004;DHT22;3542;48.812;9.146;2023-04-03T00:02:36;4.30;99.90
7004;DHT22;3542;48.812;9.146;2023-04-03T00:05:02;4.20;99.90
7004;DHT22;3542;48.812;9.146;2023-04-03T00:07:28;4.20;99.90
7004;DHT22;3542;48.812;9.146;2023-04-03T00:09:53;4.20;99.90
7004;DHT22;3542;48.812;9.146;2023-04-03T00:12:18;4.20;99.90
7004;DHT22;3542;48.812;9.146;2023-04-03T00:14:44;4.10;99.90
7004;DHT22;3542;48.812;9.146;2023-04-03T00:17:10;4.20;99.90
7004;DHT22;3542;48.812;9.146;2023-04-03T00:19:35;4.10;99.90
7004;DHT22;3542;48.812;9.146;2023-04-03T00:22:00;4.10;99.90
7004;DHT22;3542;48.812;9.146;2023-04-03T00:24:26;4.10;99.90
7004;DHT22;3542;48.812;9.146;2023-04-03T00:26:52;4.10;99.90
7004;DHT22;3542;48.812;9.146;2023-04-03T00:29:17;4.10;99.90
7004;DHT22;3542;48.812;9.146;2023-04-03T00:31:43;4.10;99.90
7004;DHT22;3542;48.812;9.146;2023-04-03T00:34:08;4.10;99.90
7004;DHT22;3542;48.812;9.146;2023-04-03T00:36:34;4.10;99.90
7004;DHT22;3542;48.812;9.146;2023-04-03T00:38:59;4.20;99.90
7004;DHT22;3542;48.812;9.146;2023-04-03T00:41:25;4.10;99.90
7004;DHT22;3542;48.812;9.146;2023-04-03T00:43:50;4.10;99.90
7004;DHT22;3542;48.812;9.146;2023-04-03T00:46:16;4.10;99.90
7004;DHT22;3542;48.812;9.146;2023-04-03T00:48:44;4.00;99.90
7004;DHT22;3542;48.812;9.146;2023-04-03T00:51:14;4.10;99.90
7004;DHT22;3542;48.812;9.146;2023-04-03T00:53:44;4.10;99.90
7004;DHT22;3542;48.812;9.146;2023-04-03T00:56:13;4.10;99.90
7004;DHT22;3542;48.812;9.146;2023-04-03T00:58:46;4.00;99.90
7004;DHT22;3542;48.812;9.146;2023-04-03T02:31:51;3.90;99.90
7004;DHT22;3542;48.812;9.146;2023-04-03T02:34:17;3.90;99.90
7004;DHT22;3542;48.812;9.146;2023-04-03T02:36:42;3.80;99.90
7004;DHT22;3542;48.812;9.146;2023-04-03T02:39:08;3.80;99.90
7004;DHT22;3542;48.812;9.146;2023-04-03T02:41:34;3.80;99.90
7004;DHT22;3542;48.812;9.146;2023-04-03T02:44:05;3.90;99.90
7004;DHT22;3542;48.812;9.146;2023-04-03T02:46:32;3.90;99.90
7004;DHT22;3542;48.812;9.146;2023-04-03T02:48:57;3.90;99.90
7004;DHT22;3542;48.812;9.146;2023-04-03T02:51:23;3.80;99.90
7004;DHT22;3542;48.812;9.146;2023-04-03T02:53:50;3.90;99.90
7004;DHT22;3542;48.812;9.146;2023-04-03T02:56:16;3.90;99.90
7004;DHT22;3542;48.812;9.146;2023-04-03T02:58:42;3.90;99.90
7004;DHT22;3542;48.812;9.146;2023-04-03T03:01:08;3.80;99.90
7004;DHT22;3542;48.812;9.146;2023-04-03T03:03:34;3.80;99.90
7004;DHT22;3542;48.812;9.146;2023-04-03T03:06:12;3.90;99.90
7004;DHT22;3542;48.812;9.146;2023-04-03T03:08:38;3.80;99.90
7004;DHT22;3542;48.812;9.146;2023-04-03T03:11:04;3.80;99.90
7004;DHT22;3542;48.812;9.146;2023-04-03T03:13:30;3.80;99.90
7004;DHT22;3542;48.812;9.146;2023-04-03T03:15:56;3.90;99.90
7004;DHT22;3542;48.812;9.146;2023-04-03T03:18:22;3.90;99.90
7004;DHT22;3542;48.812;9.146;2023-04-03T03:20:52;3.90;99.90
7004;DHT22;3542;48.812;9.146;2023-04-03T03:23:18;3.90;99.90
7004;DHT22;3542;48.812;9.146;2023-04-03T03:25:43;3.90;99.90
7004;DHT22;3542;48.812;9.146;2023-04-03T03:28:09;3.90;99.90
7004;DHT22;3542;48.812;9.146;2023-04-03T03:30:35;3.80;99.90
7004;DHT22;3542;48.812;9.146;2023-04-03T03:33:00;3.90;99.90
7004;DHT22;3542;48.812;9.146;2023-04-03T03:35:26;3.90;99.90
7004;DHT22;3542;48.812;9.146;2023-04-03T03:37:52;3.90;99.90
7004;DHT22;3542;48.812;9.146;2023-04-03T03:40:17;3.90;99.90
7004;DHT22;3542;48.812;9.146;2023-04-03T03:42:43;3.80;99.90
7004;DHT22;3542;48.812;9.146;2023-04-03T03:45:09;3.80;99.90
7004;DHT22;3542;48.812;9.146;2023-04-03T03:47:35;3.80;99.90
7004;DHT22;3542;48.812;9.146;2023-04-03T03:50:01;3.80;99.90
7004;DHT22;3542;48.812;9.146;2023-04-03T03:52:26;3.80;99.90
7004;DHT22;3542;48.812;9.146;2023-04-03T03:54:52;3.80;99.90
7004;DHT22;3542;48.812;9.146;2023-04-03T03:57:17;3.80;99.90
7004;DHT22;3542;48.812;9.146;2023-04-03T03:59:43;3.90;99.90
7004;DHT22;3542;48.812;9.146;2023-04-03T04:02:10;3.90;99.90
7004;DHT22;3542;48.812;9.146;2023-04-03T04:04:35;3.90;99.90
7004;DHT22;3542;48.812;9.146;2023-04-03T04:07:01;3.90;99.90
7004;DHT22;3542;48.812;9.146;2023-04-03T04:09:27;3.90;99.90
7004;DHT22;3542;48.812;9.146;2023-04-03T04:11:53;3.90;99.90
7004;DHT22;3542;48.812;9.146;2023-04-03T04:14:19;3.90;99.90
7004;DHT22;3542;48.812;9.146;2023-04-03T04:16:46;3.90;99.90
7004;DHT22;3542;48.812;9.146;2023-04-03T04:19:12;3.90;99.90
7004;DHT22;3542;48.812;9.146;2023-04-03T04:21:38;3.90;99.90
7004;DHT22;3542;48.812;9.146;2023-04-03T04:24:05;3.90;99.90
7004;DHT22;3542;48.812;9.146;2023-04-03T04:26:30;3.90;99.90
7004;DHT22;3542;48.812;9.146;2023-04-03T04:28:56;3.90;99.90
7004;DHT22;3542;48.812;9.146;2023-04-03T04:31:21;3.90;99.90
7004;DHT22;3542;48.812;9.146;2023-04-03T04:33:47;3.90;99.90
7004;DHT22;3542;48.812;9.146;2023-04-03T04:36:12;4.00;99.90
7004;DHT22;3542;48.812;9.146;2023-04-03T04:38:40;4.00;99.90
7004;DHT22;3542;48.812;9.146;2023-04-03T04:41:05;4.00;99.90
7004;DHT22;3542;48.812;9.146;2023-04-03T04:43:31;4.00;99.90
7004;DHT22;3542;48.812;9.146;2023-04-03T04:46:01;4.00;99.90
7004;DHT22;3542;48.812;9.146;2023-04-03T04:48:26;4.00;99.90
7004;DHT22;3542;48.812;9.146;2023-04-03T04:50:52;4.00;99.90
7004;DHT22;3542;48.812;9.146;2023-04-03T04:53:17;4.00;99.90
7004;DHT22;3542;48.812;9.146;2023-04-03T04:55:43;4.00;99.90
7004;DHT22;3542;48.812;9.146;2023-04-03T04:58:08;4.10;99.90
7004;DHT22;3542;48.812;9.146;2023-04-03T05:00:34;4.00;99.90
7004;DHT22;3542;48.812;9.146;2023-04-03T05:02:59;4.10;99.90
7004;DHT22;3542;48.812;9.146;2023-04-03T05:05:25;4.10;99.90
7004;DHT22;3542;48.812;9.146;2023-04-03T05:07:50;4.10;99.90
7004;DHT22;3542;48.812;9.146;2023-04-03T05:10:16;4.10;99.90
7004;DHT22;3542;48.812;9.146;2023-04-03T05:12:41;4.10;99.90
7004;DHT22;3542;48.812;9.146;2023-04-03T05:15:07;4.20;99.90
7004;DHT22;3542;48.812;9.146;2023-04-03T05:17:33;4.20;99.90
7004;DHT22;3542;48.812;9.146;2023-04-03T05:19:59;4.20;99.90
7004;DHT22;3542;48.812;9.146;2023-04-03T05:22:24;4.20;99.90
7004;DHT22;3542;48.812;9.146;2023-04-03T05:24:50;4.20;99.90
7004;DHT22;3542;48.812;9.146;2023-04-03T05:27:15;4.20;99.90
7004;DHT22;3542;48.812;9.146;2023-04-03T05:29:42;4.20;99.90
7004;DHT22;3542;48.812;9.146;2023-04-03T05:32:09;4.20;99.90
7004;DHT22;3542;48.812;9.146;2023-04-03T05:34:35;4.20;99.90
7004;DHT22;3542;48.812;9.146;2023-04-03T05:37:00;4.20;99.90
7004;DHT22;3542;48.812;9.146;2023-04-03T05:39:28;4.20;99.90
7004;DHT22;3542;48.812;9.146;2023-04-03T05:41:54;4.20;99.90
7004;DHT22;3542;48.812;9.146;2023-04-03T05:44:19;4.20;99.90
7004;DHT22;3542;48.812;9.146;2023-04-03T05:46:45;4.20;99.90
7004;DHT22;3542;48.812;9.146;2023-04-03T05:49:10;4.20;99.90
7004;DHT22;3542;48.812;9.146;2023-04-03T05:51:39;4.20;99.90
7004;DHT22;3542;48.812;9.146;2023-04-03T05:54:26;4.20;99.90
7004;DHT22;3542;48.812;9.146;2023-04-03T05:56:52;4.20;99.90
7004;DHT22;3542;48.812;9.146;2023-04-03T05:59:19;4.20;99.90
7004;DHT22;3542;48.812;9.146;2023-04-03T06:01:45;4.30;99.90
7004;DHT22;3542;48.812;9.146;2023-04-03T06:04:11;4.30;99.90
7004;DHT22;3542;48.812;9.146;2023-04-03T06:07:03;4.40;99.90
7004;DHT22;3542;48.812;9.146;2023-04-03T06:09:29;4.40;99.90
7004;DHT22;3542;48.812;9.146;2023-04-03T06:11:55;4.50;99.90
7004;DHT22;3542;48.812;9.146;2023-04-03T06:14:21;4.50;99.90
7004;DHT22;3542;48.812;9.146;2023-04-03T06:16:46;4.50;99.90
7004;DHT22;3542;48.812;9.146;2023-04-03T06:19:12;4.50;99.90
7004;DHT22;3542;48.812;9.146;2023-04-03T06:21:38;4.40;99.90
7004;DHT22;3542;48.812;9.146;2023-04-03T06:24:05;4.40;99.90
7004;DHT22;3542;48.812;9.146;2023-04-03T06:26:31;4.40;99.90
7004;DHT22;3542;48.812;9.146;2023-04-03T06:28:56;4.50;99.90
7004;DHT22;3542;48.812;9.146;2023-04-03T06:31:22;4.50;99.90
7004;DHT22;3542;48.812;9.146;2023-04-03T06:33:48;4.50;99.90
7004;DHT22;3542;48.812;9.146;2023-04-03T06:36:13;4.60;99.90
7004;DHT22;3542;48.812;9.146;2023-04-03T06:38:39;4.70;99.90
7004;DHT22;3542;48.812;9.146;2023-04-03T06:41:04;4.70;99.90
7004;DHT22;3542;48.812;9.146;2023-04-03T06:43:30;4.70;99.90
7004;DHT22;3542;48.812;9.146;2023-04-03T06:45:58;4.70;99.90
7004;DHT22;3542;48.812;9.146;2023-04-03T06:48:24;4.60;99.90
7004;DHT22;3542;48.812;9.146;2023-04-03T06:50:49;4.60;99.90
7004;DHT22;3542;48.812;9.146;2023-04-03T06:53:15;4.60;99.90
7004;DHT22;3542;48.812;9.146;2023-04-03T06:55:41;4.70;99.90
7004;DHT22;3542;48.812;9.146;2023-04-03T06:58:06;4.70;99.90
7004;DHT22;3542;48.812;9.146;2023-04-03T07:00:32;4.60;99.90
7004;DHT22;3542;48.812;9.146;2023-04-03T07:02:58;4.60;99.90
7004;DHT22;3542;48.812;9.146;2023-04-03T07:05:24;4.60;99.90
7004;DHT22;3542;48.812;9.146;2023-04-03T07:07:50;4.70;99.90
7004;DHT22;3542;48.812;9.146;2023-04-03T07:10:15;4.70;99.90
7004;DHT22;3542;48.812;9.146;2023-04-03T07:12:41;4.80;99.90
7004;DHT22;3542;48.812;9.146;2023-04-03T07:15:07;4.90;99.90
7004;DHT22;3542;48.812;9.146;2023-04-03T07:17:34;4.90;99.90
7004;DHT22;3542;48.812;9.146;2023-04-03T07:19:59;4.90;99.90
7004;DHT22;3542;48.812;9.146;2023-04-03T07:22:25;5.00;99.90
7004;DHT22;3542;48.812;9.146;2023-04-03T07:24:51;5.10;99.90
7004;DHT22;3542;48.812;9.146;2023-04-03T07:27:16;5.10;99.90
7004;DHT22;3542;48.812;9.146;2023-04-03T07:29:43;5.20;99.90
7004;DHT22;3542;48.812;9.146;2023-04-03T07:32:09;5.30;99.90
7004;DHT22;3542;48.812;9.146;2023-04-03T07:34:35;5.40;99.90
7004;DHT22;3542;48.812;9.146;2023-04-03T07:37:01;5.50;99.90
7004;DHT22;3542;48.812;9.146;2023-04-03T07:39:28;5.60;99.90
7004;DHT22;3542;48.812;9.146;2023-04-03T07:41:54;5.70;99.90
7004;DHT22;3542;48.812;9.146;2023-04-03T07:44:21;5.70;99.90
7004;DHT22;3542;48.812;9.146;2023-04-03T07:46:46;5.70;99.90
7004;DHT22;3542;48.812;9.146;2023-04-03T07:49:12;5.80;99.90
7004;DHT22;3542;48.812;9.146;2023-04-03T07:51:37;6.00;99.90
7004;DHT22;3542;48.812;9.146;2023-04-03T07:54:03;6.00;99.90
7004;DHT22;3542;48.812;9.146;2023-04-03T07:56:29;6.00;99.90
7004;DHT22;3542;48.812;9.146;2023-04-03T07:58:55;6.20;99.90
7004;DHT22;3542;48.812;9.146;2023-04-03T08:01:20;6.30;99.90
7004;DHT22;3542;48.812;9.146;2023-04-03T08:03:46;6.50;99.90
7004;DHT22;3542;48.812;9.146;2023-04-03T08:06:11;6.60;99.90
7004;DHT22;3542;48.812;9.146;2023-04-03T08:08:38;6.60;99.90
7004;DHT22;3542;48.812;9.146;2023-04-03T08:11:04;6.50;99.90
7004;DHT22;3542;48.812;9.146;2023-04-03T08:13:31;6.40;99.90
7004;DHT22;3542;48.812;9.146;2023-04-03T08:15:57;6.50;99.90
7004;DHT22;3542;48.812;9.146;2023-04-03T08:18:24;6.50;99.90
7004;DHT22;3542;48.812;9.146;2023-04-03T08:20:51;6.70;99.90
7004;DHT22;3542;48.812;9.146;2023-04-03T08:23:18;6.90;99.90
7004;DHT22;3542;48.812;9.146;2023-04-03T08:25:44;6.80;99.90
7004;DHT22;3542;48.812;9.146;2023-04-03T08:28:11;6.80;99.90
7004;DHT22;3542;48.812;9.146;2023-04-03T08:30:41;6.80;99.90
7004;DHT22;3542;48.812;9.146;2023-04-03T08:33:08;6.90;99.90
7004;DHT22;3542;48.812;9.146;2023-04-03T08:35:38;7.00;99.90
7004;DHT22;3542;48.812;9.146;2023-04-03T08:38:04;7.20;99.90
7004;DHT22;3542;48.812;9.146;2023-04-03T08:40:30;7.40;99.90
7004;DHT22;3542;48.812;9.146;2023-04-03T08:45:43;7.50;99.90
7004;DHT22;3542;48.812;9.146;2023-04-03T08:48:18;7.70;99.90
7004;DHT22;3542;48.812;9.146;2023-04-03T08:50:47;7.60;99.90
7004;DHT22;3542;48.812;9.146;2023-04-03T08:53:16;7.60;99.90
7004;DHT22;3542;48.812;9.146;2023-04-03T08:55:46;7.70;99.90
7004;DHT22;3542;48.812;9.146;2023-04-03T08:58:19;7.50;99.90
7004;DHT22;3542;48.812;9.146;2023-04-03T09:00:50;7.40;99.90
7004;DHT22;3542;48.812;9.146;2023-04-03T09:03:20;7.20;99.90
7004;DHT22;3542;48.812;9.146;2023-04-03T09:08:51;7.10;99.90
7004;DHT22;3542;48.812;9.146;2023-04-03T09:16:47;7.20;99.90
7004;DHT22;3542;48.812;9.146;2023-04-03T09:22:07;7.20;99.90
7004;DHT22;3542;48.812;9.146;2023-04-03T09:24:35;7.10;99.90
7004;DHT22;3542;48.812;9.146;2023-04-03T09:27:04;7.00;99.90
7004;DHT22;3542;48.812;9.146;2023-04-03T09:29:35;6.80;99.90
7004;DHT22;3542;48.812;9.146;2023-04-03T09:32:07;6.80;99.90
7004;DHT22;3542;48.812;9.146;2023-04-03T09:34:41;6.70;99.90
7004;DHT22;3542;48.812;9.146;2023-04-03T09:37:07;6.60;99.90
7004;DHT22;3542;48.812;9.146;2023-04-03T09:39:52;6.60;99.90
7004;DHT22;3542;48.812;9.146;2023-04-03T09:42:21;6.70;99.90
7004;DHT22;3542;48.812;9.146;2023-04-03T09:45:01;6.70;99.90
7004;DHT22;3542;48.812;9.146;2023-04-03T09:47:31;6.90;99.90
7004;DHT22;3542;48.812;9.146;2023-04-03T09:52:39;6.90;99.90
7004;DHT22;3542;48.812;9.146;2023-04-03T09:55:13;6.90;99.90
7004;DHT22;3542;48.812;9.146;2023-04-03T09:57:39;7.00;99.90
7004;DHT22;3542;48.812;9.146;2023-04-03T10:00:06;7.10;99.90
7004;DHT22;3542;48.812;9.146;2023-04-03T10:02:44;7.10;99.90
7004;DHT22;3542;48.812;9.146;2023-04-03T10:07:51;7.20;99.90
7004;DHT22;3542;48.812;9.146;2023-04-03T10:10:22;7.10;99.90
7004;DHT22;3542;48.812;9.146;2023-04-03T10:13:09;7.00;99.90
7004;DHT22;3542;48.812;9.146;2023-04-03T10:16:23;6.90;99.90
7004;DHT22;3542;48.812;9.146;2023-04-03T10:18:58;7.00;99.90
7004;DHT22;3542;48.812;9.146;2023-04-03T10:21:48;7.20;99.90
7004;DHT22;3542;48.812;9.146;2023-04-03T10:24:23;7.20;99.90
7004;DHT22;3542;48.812;9.146;2023-04-03T10:27:04;7.40;99.90
7004;DHT22;3542;48.812;9.146;2023-04-03T10:29:55;7.30;99.90
7004;DHT22;3542;48.812;9.146;2023-04-03T10:35:25;7.50;99.90
7004;DHT22;3542;48.812;9.146;2023-04-03T10:40:59;7.10;99.90
7004;DHT22;3542;48.812;9.146;2023-04-03T10:46:27;6.80;99.90
7004;DHT22;3542;48.812;9.146;2023-04-03T10:51:49;6.80;99.90
7004;DHT22;3542;48.812;9.146;2023-04-03T10:54:24;6.90;99.90
7004;DHT22;3542;48.812;9.146;2023-04-03T10:56:54;7.00;99.90
7004;DHT22;3542;48.812;9.146;2023-04-03T10:59:32;6.90;99.90
7004;DHT22;3542;48.812;9.146;2023-04-03T11:02:16;7.00;99.90
7004;DHT22;3542;48.812;9.146;2023-04-03T11:04:46;6.80;99.90
7004;DHT22;3542;48.812;9.146;2023-04-03T11:07:25;6.90;99.90
7004;DHT22;3542;48.812;9.146;2023-04-03T11:09:56;7.00;99.90
7004;DHT22;3542;48.812;9.146;2023-04-03T11:12:42;7.00;99.90
7004;DHT22;3542;48.812;9.146;2023-04-03T11:15:14;7.10;99.90
7004;DHT22;3542;48.812;9.146;2023-04-03T11:17:46;7.30;99.90
7004;DHT22;3542;48.812;9.146;2023-04-03T11:20:23;7.40;99.90
7004;DHT22;3542;48.812;9.146;2023-04-03T11:23:14;7.30;99.90
7004;DHT22;3542;48.812;9.146;2023-04-03T11:25:42;7.20;99.90
7004;DHT22;3542;48.812;9.146;2023-04-03T11:28:14;7.20;99.90
7004;DHT22;3542;48.812;9.146;2023-04-03T11:30:51;7.20;99.90
7004;DHT22;3542;48.812;9.146;2023-04-03T11:36:24;7.10;99.90
7004;DHT22;3542;48.812;9.146;2023-04-03T11:38:51;7.00;99.90
7004;DHT22;3542;48.812;9.146;2023-04-03T11:41:26;7.00;99.90
7004;DHT22;3542;48.812;9.146;2023-04-03T11:43:58;7.00;99.90
7004;DHT22;3542;48.812;9.146;2023-04-03T11:46:49;7.00;99.90
7004;DHT22;3542;48.812;9.146;2023-04-03T11:49:50;7.10;99.90
7004;DHT22;3542;48.812;9.146;2023-04-03T12:13:34;7.60;99.90
7004;DHT22;3542;48.812;9.146;2023-04-03T12:16:00;7.80;99.90
7004;DHT22;3542;48.812;9.146;2023-04-03T12:21:13;7.90;99.90
7004;DHT22;3542;48.812;9.146;2023-04-03T12:26:26;8.00;99.90
7004;DHT22;3542;48.812;9.146;2023-04-03T12:28:53;7.80;99.90
7004;DHT22;3542;48.812;9.146;2023-04-03T12:31:24;7.70;99.90
7004;DHT22;3542;48.812;9.146;2023-04-03T12:34:09;7.60;99.90
7004;DHT22;3542;48.812;9.146;2023-04-03T12:37:06;7.80;99.90
7004;DHT22;3542;48.812;9.146;2023-04-03T12:47:35;8.00;99.90
7004;DHT22;3542;48.812;9.146;2023-04-03T12:50:13;7.90;99.90
7004;DHT22;3542;48.812;9.146;2023-04-03T12:52:45;7.80;99.90
7004;DHT22;3542;48.812;9.146;2023-04-03T12:55:21;7.70;99.90
7004;DHT22;3542;48.812;9.146;2023-04-03T12:57:47;7.70;99.90
7004;DHT22;3542;48.812;9.146;2023-04-03T13:02:45;7.90;99.90
7004;DHT22;3542;48.812;9.146;2023-04-03T13:05:15;7.80;99.90
7004;DHT22;3542;48.812;9.146;2023-04-03T13:07:41;7.70;99.90
7004;DHT22;3542;48.812;9.146;2023-04-03T13:12:58;7.60;99.90
7004;DHT22;3542;48.812;9.146;2023-04-03T13:15:41;7.70;99.90
7004;DHT22;3542;48.812;9.146;2023-04-03T13:18:31;7.90;99.90
7004;DHT22;3542;48.812;9.146;2023-04-03T13:23:42;8.10;99.90
7004;DHT22;3542;48.812;9.146;2023-04-03T13:26:10;8.10;99.90
7004;DHT22;3542;48.812;9.146;2023-04-03T13:28:36;8.10;99.90
7004;DHT22;3542;48.812;9.146;2023-04-03T13:34:03;8.00;99.90
7004;DHT22;3542;48.812;9.146;2023-04-03T13:36:33;8.10;99.90
7004;DHT22;3542;48.812;9.146;2023-04-03T13:39:06;8.10;99.90
7004;DHT22;3542;48.812;9.146;2023-04-03T13:41:38;8.20;99.90
7004;DHT22;3542;48.812;9.146;2023-04-03T13:46:53;8.40;99.90
7004;DHT22;3542;48.812;9.146;2023-04-03T13:49:31;8.40;99.90
7004;DHT22;3542;48.812;9.146;2023-04-03T13:51:57;8.50;99.90
7004;DHT22;3542;48.812;9.146;2023-04-03T13:54:35;8.60;99.90
7004;DHT22;3542;48.812;9.146;2023-04-03T13:57:02;8.80;99.90
7004;DHT22;3542;48.812;9.146;2023-04-03T13:59:33;8.60;99.90
7004;DHT22;3542;48.812;9.146;2023-04-03T14:06:54;8.40;99.90
7004;DHT22;3542;48.812;9.146;2023-04-03T14:09:21;8.30;99.90
7004;DHT22;3542;48.812;9.146;2023-04-03T14:11:49;8.20;99.90
7004;DHT22;3542;48.812;9.146;2023-04-03T14:14:24;8.10;99.90
7004;DHT22;3542;48.812;9.146;2023-04-03T14:16:55;8.10;99.90
7004;DHT22;3542;48.812;9.146;2023-04-03T14:19:27;8.10;99.90
7004;DHT22;3542;48.812;9.146;2023-04-03T14:21:54;8.30;99.90
7004;DHT22;3542;48.812;9.146;2023-04-03T14:24:20;8.30;99.90
7004;DHT22;3542;48.812;9.146;2023-04-03T14:26:47;8.30;99.90
7004;DHT22;3542;48.812;9.146;2023-04-03T14:29:14;8.40;99.90
7004;DHT22;3542;48.812;9.146;2023-04-03T14:31:42;8.30;99.90
7004;DHT22;3542;48.812;9.146;2023-04-03T14:34:09;8.10;99.90
7004;DHT22;3542;48.812;9.146;2023-04-03T14:36:35;8.10;99.90
7004;DHT22;3542;48.812;9.146;2023-04-03T14:39:00;8.10;99.90
7004;DHT22;3542;48.812;9.146;2023-04-03T14:41:27;8.10;99.90
7004;DHT22;3542;48.812;9.146;2023-04-03T14:43:53;8.00;99.90
7004;DHT22;3542;48.812;9.146;2023-04-03T14:46:29;8.00;99.90
7004;DHT22;3542;48.812;9.146;2023-04-03T14:48:55;8.10;99.90
7004;DHT22;3542;48.812;9.146;2023-04-03T14:51:21;8.10;99.90
7004;DHT22;3542;48.812;9.146;2023-04-03T14:53:46;8.30;99.90
7004;DHT22;3542;48.812;9.146;2023-04-03T14:56:16;8.50;99.90
7004;DHT22;3542;48.812;9.146;2023-04-03T14:58:43;8.50;99.90
7004;DHT22;3542;48.812;9.146;2023-04-03T15:01:10;8.50;99.90
7004;DHT22;3542;48.812;9.146;2023-04-03T15:03:37;8.50;99.90
7004;DHT22;3542;48.812;9.146;2023-04-03T15:06:03;8.30;99.90
7004;DHT22;3542;48.812;9.146;2023-04-03T15:08:29;8.20;99.90
7004;DHT22;3542;48.812;9.146;2023-04-03T15:10:55;8.10;99.90
7004;DHT22;3542;48.812;9.146;2023-04-03T15:13:22;8.20;99.90
7004;DHT22;3542;48.812;9.146;2023-04-03T15:15:48;8.30;99.90
7004;DHT22;3542;48.812;9.146;2023-04-03T15:18:26;8.40;99.90
7004;DHT22;3542;48.812;9.146;2023-04-03T15:20:54;8.30;99.90
7004;DHT22;3542;48.812;9.146;2023-04-03T15:23:20;8.10;99.90
7004;DHT22;3542;48.812;9.146;2023-04-03T15:25:47;8.20;99.90
7004;DHT22;3542;48.812;9.146;2023-04-03T15:28:28;8.20;99.90
7004;DHT22;3542;48.812;9.146;2023-04-03T15:30:54;8.20;99.90
7004;DHT22;3542;48.812;9.146;2023-04-03T15:33:20;8.10;99.90
7004;DHT22;3542;48.812;9.146;2023-04-03T15:35:46;8.10;99.90
7004;DHT22;3542;48.812;9.146;2023-04-03T15:38:11;8.00;99.90
7004;DHT22;3542;48.812;9.146;2023-04-03T15:40:37;7.80;99.90
7004;DHT22;3542;48.812;9.146;2023-04-03T15:43:04;7.70;99.90
7004;DHT22;3542;48.812;9.146;2023-04-03T15:45:31;7.60;99.90
7004;DHT22;3542;48.812;9.146;2023-04-03T15:47:57;7.60;99.90
7004;DHT22;3542;48.812;9.146;2023-04-03T15:50:23;7.60;99.90
7004;DHT22;3542;48.812;9.146;2023-04-03T15:52:50;7.50;99.90
7004;DHT22;3542;48.812;9.146;2023-04-03T15:55:27;7.50;99.90
7004;DHT22;3542;48.812;9.146;2023-04-03T15:57:53;7.60;99.90
7004;DHT22;3542;48.812;9.146;2023-04-03T16:00:19;7.60;99.90
7004;DHT22;3542;48.812;9.146;2023-04-03T16:02:46;7.60;99.90
7004;DHT22;3542;48.812;9.146;2023-04-03T16:05:13;7.70;99.90
7004;DHT22;3542;48.812;9.146;2023-04-03T16:07:41;7.70;99.90
7004;DHT22;3542;48.812;9.146;2023-04-03T16:10:07;7.60;99.90
7004;DHT22;3542;48.812;9.146;2023-04-03T16:12:33;7.60;99.90
7004;DHT22;3542;48.812;9.146;2023-04-03T16:14:59;7.60;99.90
7004;DHT22;3542;48.812;9.146;2023-04-03T16:17:26;7.70;99.90
7004;DHT22;3542;48.812;9.146;2023-04-03T16:19:53;7.70;99.90
7004;DHT22;3542;48.812;9.146;2023-04-03T16:22:19;7.60;99.90
7004;DHT22;3542;48.812;9.146;2023-04-03T16:24:44;7.60;99.90
7004;DHT22;3542;48.812;9.146;2023-04-03T16:27:10;7.40;99.90
7004;DHT22;3542;48.812;9.146;2023-04-03T16:29:35;7.30;99.90
7004;DHT22;3542;48.812;9.146;2023-04-03T16:32:01;7.20;99.90
7004;DHT22;3542;48.812;9.146;2023-04-03T16:34:27;7.10;99.90
7004;DHT22;3542;48.812;9.146;2023-04-03T16:36:55;7.10;99.90
7004;DHT22;3542;48.812;9.146;2023-04-03T16:39:21;7.10;99.90
7004;DHT22;3542;48.812;9.146;2023-04-03T16:41:46;7.00;99.90
7004;DHT22;3542;48.812;9.146;2023-04-03T16:44:12;6.90;99.90
7004;DHT22;3542;48.812;9.146;2023-04-03T16:46:37;6.90;99.90
7004;DHT22;3542;48.812;9.146;2023-04-03T16:49:03;7.00;99.90
7004;DHT22;3542;48.812;9.146;2023-04-03T16:51:29;7.00;99.90
7004;DHT22;3542;48.812;9.146;2023-04-03T16:53:55;7.00;99.90
7004;DHT22;3542;48.812;9.146;2023-04-03T16:56:21;7.00;99.90
7004;DHT22;3542;48.812;9.146;2023-04-03T16:58:47;7.00;99.90
7004;DHT22;3542;48.812;9.146;2023-04-03T17:01:15;7.00;99.90
7004;DHT22;3542;48.812;9.146;2023-04-03T17:03:41;6.90;99.90
7004;DHT22;3542;48.812;9.146;2023-04-03T17:06:06;6.90;99.90
7004;DHT22;3542;48.812;9.146;2023-04-03T17:08:32;6.90;99.90
7004;DHT22;3542;48.812;9.146;2023-04-03T17:10:58;6.90;99.90
7004;DHT22;3542;48.812;9.146;2023-04-03T17:13:24;6.80;99.90
7004;DHT22;3542;48.812;9.146;2023-04-03T17:15:56;6.80;99.90
7004;DHT22;3542;48.812;9.146;2023-04-03T17:18:22;6.70;99.90
7004;DHT22;3542;48.812;9.146;2023-04-03T17:20:48;6.60;99.90
7004;DHT22;3542;48.812;9.146;2023-04-03T17:23:13;6.60;99.90
7004;DHT22;3542;48.812;9.146;2023-04-03T17:25:39;6.50;99.90
7004;DHT22;3542;48.812;9.146;2023-04-03T17:28:04;6.50;99.90
7004;DHT22;3542;48.812;9.146;2023-04-03T17:30:30;6.50;99.90
7004;DHT22;3542;48.812;9.146;2023-04-03T17:32:56;6.40;99.90
7004;DHT22;3542;48.812;9.146;2023-04-03T17:35:22;6.30;99.90
7004;DHT22;3542;48.812;9.146;2023-04-03T17:37:48;6.30;99.90
7004;DHT22;3542;48.812;9.146;2023-04-03T17:40:15;6.30;99.90
7004;DHT22;3542;48.812;9.146;2023-04-03T17:42:42;6.20;99.90
7004;DHT22;3542;48.812;9.146;2023-04-03T17:45:08;6.20;99.90
7004;DHT22;3542;48.812;9.146;2023-04-03T17:47:34;6.10;99.90
7004;DHT22;3542;48.812;9.146;2023-04-03T17:49:59;6.10;99.90
7004;DHT22;3542;48.812;9.146;2023-04-03T17:52:25;6.00;99.90
7004;DHT22;3542;48.812;9.146;2023-04-03T17:54:53;6.10;99.90
7004;DHT22;3542;48.812;9.146;2023-04-03T17:57:18;6.10;99.90
7004;DHT22;3542;48.812;9.146;2023-04-03T17:59:44;6.10;99.90
7004;DHT22;3542;48.812;9.146;2023-04-03T18:02:09;6.00;99.90
7004;DHT22;3542;48.812;9.146;2023-04-03T18:04:35;5.90;99.90
7004;DHT22;3542;48.812;9.146;2023-04-03T18:07:01;5.90;99.90
7004;DHT22;3542;48.812;9.146;2023-04-03T18:09:32;5.80;99.90
7004;DHT22;3542;48.812;9.146;2023-04-03T18:12:00;5.80;99.90
7004;DHT22;3542;48.812;9.146;2023-04-03T18:14:27;5.80;99.90
7004;DHT22;3542;48.812;9.146;2023-04-03T18:16:53;5.80;99.90
7004;DHT22;3542;48.812;9.146;2023-04-03T18:19:21;5.70;99.90
7004;DHT22;3542;48.812;9.146;2023-04-03T18:21:47;5.70;99.90
7004;DHT22;3542;48.812;9.146;2023-04-03T18:24:14;5.70;99.90
7004;DHT22;3542;48.812;9.146;2023-04-03T18:26:41;5.60;99.90
7004;DHT22;3542;48.812;9.146;2023-04-03T18:29:11;5.60;99.90
7004;DHT22;3542;48.812;9.146;2023-04-03T18:31:39;5.60;99.90
7004;DHT22;3542;48.812;9.146;2023-04-03T18:34:05;5.60;99.90
7004;DHT22;3542;48.812;9.146;2023-04-03T18:36:31;5.60;99.90
7004;DHT22;3542;48.812;9.146;2023-04-03T18:38:56;5.50;99.90
7004;DHT22;3542;48.812;9.146;2023-04-03T18:41:26;5.50;99.90
7004;DHT22;3542;48.812;9.146;2023-04-03T18:43:54;5.50;99.90
7004;DHT22;3542;48.812;9.146;2023-04-03T18:46:20;5.50;99.90
7004;DHT22;3542;48.812;9.146;2023-04-03T18:48:45;5.40;99.90
7004;DHT22;3542;48.812;9.146;2023-04-03T18:51:12;5.40;99.90
7004;DHT22;3542;48.812;9.146;2023-04-03T18:53:38;5.40;99.90
7004;DHT22;3542;48.812;9.146;2023-04-03T18:56:04;5.30;99.90
7004;DHT22;3542;48.812;9.146;2023-04-03T18:58:29;5.30;99.90
7004;DHT22;3542;48.812;9.146;2023-04-03T19:00:57;5.30;99.90
7004;DHT22;3542;48.812;9.146;2023-04-03T19:03:23;5.20;99.90
7004;DHT22;3542;48.812;9.146;2023-04-03T19:05:49;5.10;99.90
7004;DHT22;3542;48.812;9.146;2023-04-03T19:08:14;5.10;99.90
7004;DHT22;3542;48.812;9.146;2023-04-03T19:10:40;5.10;99.90
7004;DHT22;3542;48.812;9.146;2023-04-03T19:13:05;5.00;99.90
7004;DHT22;3542;48.812;9.146;2023-04-03T19:15:31;5.00;99.90
7004;DHT22;3542;48.812;9.146;2023-04-03T19:17:57;4.90;99.90
7004;DHT22;3542;48.812;9.146;2023-04-03T19:20:22;4.90;99.90